createdAt,value
2019-04-06T00:00:47.614Z,10.17
2019-04-06T00:03:18.043Z,10.23
2019-04-06T00:05:48.571Z,9.63
2019-04-06T00:08:19.062Z,10.10
2019-04-06T00:10:49.614Z,10.90
2019-04-06T00:13:20.262Z,9.90
2019-04-06T00:15:50.805Z,10.13
2019-04-06T00:18:21.313Z,9.20
2019-04-06T00:20:51.740Z,10.97
2019-04-06T00:23:22.352Z,10.30
2019-04-06T00:25:52.912Z,9.53
2019-04-06T00:28:23.570Z,10.07
2019-04-06T00:31:01.319Z,10.53
2019-04-06T00:33:31.765Z,10.13
2019-04-06T00:36:02.287Z,10.47
2019-04-06T00:38:33.853Z,10.00
2019-04-06T00:41:04.564Z,10.40
2019-04-06T00:43:35.154Z,10.00
2019-04-06T00:46:05.745Z,10.63
2019-04-06T00:48:36.188Z,10.77
2019-04-06T00:51:06.600Z,11.00
2019-04-06T00:53:37.049Z,10.53
2019-04-06T00:56:07.508Z,11.47
2019-04-06T00:58:37.961Z,11.03
2019-04-06T01:01:08.377Z,10.83
2019-04-06T01:03:39.716Z,11.10
2019-04-06T01:06:10.104Z,10.67
2019-04-06T01:08:40.547Z,11.20
2019-04-06T01:11:10.954Z,11.93
2019-04-06T01:13:41.465Z,11.97
2019-04-06T01:16:11.862Z,11.97
2019-04-06T01:18:42.399Z,12.87
2019-04-06T01:21:12.968Z,11.93
2019-04-06T01:23:43.434Z,12.03
2019-04-06T01:26:13.884Z,11.80
2019-04-06T01:28:45.446Z,13.10
2019-04-06T01:31:15.962Z,12.27
2019-04-06T01:33:46.849Z,12.43
2019-04-06T01:36:17.257Z,14.03
2019-04-06T01:38:47.761Z,13.23
2019-04-06T01:41:18.506Z,13.87
2019-04-06T01:43:48.997Z,14.27
2019-04-06T01:46:19.501Z,14.30
2019-04-06T01:48:50.044Z,14.73
2019-04-06T01:51:20.509Z,14.43
2019-04-06T01:53:50.934Z,14.43
2019-04-06T01:56:21.348Z,14.60
2019-04-06T01:58:51.858Z,15.60
2019-04-06T02:01:29.503Z,13.63
2019-04-06T02:04:00.014Z,14.97
2019-04-06T02:06:30.434Z,14.83
2019-04-06T02:09:00.938Z,15.80
2019-04-06T02:11:32.964Z,15.83
2019-04-06T02:14:03.632Z,15.87
2019-04-06T02:16:34.146Z,16.57
2019-04-06T02:19:04.822Z,16.23
2019-04-06T02:21:35.227Z,16.10
2019-04-06T02:24:05.781Z,17.03
2019-04-06T02:26:36.420Z,18.20
2019-04-06T02:29:06.892Z,17.17
2019-04-06T02:31:54.998Z,18.03
2019-04-06T02:34:53.432Z,17.43
2019-04-06T02:37:36.506Z,19.63
2019-04-06T02:40:34.247Z,18.13
2019-04-06T02:43:14.120Z,17.50
2019-04-06T02:45:44.437Z,18.33
2019-04-06T02:48:14.871Z,17.73
2019-04-06T02:50:45.245Z,18.00
2019-04-06T02:53:15.705Z,16.83
2019-04-06T02:55:46.077Z,17.77
2019-04-06T02:58:17.596Z,17.17
2019-04-06T03:00:47.936Z,16.47
2019-04-06T03:03:21.297Z,17.03
2019-04-06T03:05:53.765Z,16.27
2019-04-06T03:08:24.221Z,16.63
2019-04-06T03:10:54.588Z,18.30
2019-04-06T03:13:25.033Z,16.37
2019-04-06T03:15:55.410Z,17.23
2019-04-06T03:18:25.742Z,17.47
2019-04-06T03:20:56.256Z,17.13
2019-04-06T03:23:26.645Z,16.60
2019-04-06T03:25:57.171Z,17.30
2019-04-06T03:28:27.507Z,17.60
2019-04-06T03:30:57.882Z,18.33
2019-04-06T03:33:28.376Z,17.40
2019-04-06T03:35:58.932Z,18.30
2019-04-06T03:38:33.485Z,18.23
2019-04-06T03:41:04.178Z,18.33
2019-04-06T03:43:34.736Z,17.63
2019-04-06T03:46:05.118Z,18.13
2019-04-06T03:48:35.713Z,18.07
2019-04-06T03:51:06.062Z,18.53
2019-04-06T03:53:36.302Z,18.87
2019-04-06T03:56:06.732Z,17.60
2019-04-06T03:58:39.221Z,16.67
2019-04-06T04:01:09.591Z,17.70
2019-04-06T04:03:40.385Z,15.70
2019-04-06T04:06:10.928Z,17.23
2019-04-06T04:08:41.380Z,16.80
2019-04-06T04:11:11.764Z,16.70
2019-04-06T04:13:42.120Z,17.67
2019-04-06T04:16:12.981Z,17.50
2019-04-06T04:18:43.565Z,18.93
2019-04-06T04:21:14.108Z,19.30
2019-04-06T04:23:44.573Z,19.33
2019-04-06T04:26:15.090Z,19.83
2019-04-06T04:28:45.480Z,21.07
2019-04-06T04:31:16.157Z,22.47
2019-04-06T04:33:50.305Z,20.47
2019-04-06T04:36:20.609Z,22.87
2019-04-06T04:38:50.929Z,24.83
2019-04-06T04:41:21.233Z,26.20
2019-04-06T04:43:51.501Z,26.73
2019-04-06T04:46:22.386Z,27.40
2019-04-06T04:48:54.212Z,28.80
2019-04-06T04:51:24.738Z,29.43
2019-04-06T04:53:58.094Z,30.33
2019-04-06T04:56:28.594Z,29.33
2019-04-06T04:58:58.989Z,29.90
2019-04-06T05:01:29.509Z,29.67
2019-04-06T05:04:03.138Z,31.13
2019-04-06T05:06:33.817Z,31.50
2019-04-06T05:09:10.260Z,30.63
2019-04-06T05:11:44.228Z,29.70
2019-04-06T05:14:50.359Z,31.23
2019-04-06T05:17:20.728Z,30.53
2019-04-06T05:19:51.090Z,30.90
2019-04-06T05:22:21.548Z,30.63
2019-04-06T05:24:51.998Z,30.90
2019-04-06T05:27:22.582Z,32.37
2019-04-06T05:29:53.960Z,31.67
2019-04-06T05:32:24.384Z,29.20
2019-04-06T05:34:54.811Z,29.87
2019-04-06T05:37:25.123Z,30.40
2019-04-06T05:39:55.550Z,31.10
2019-04-06T05:42:25.869Z,29.60
2019-04-06T05:44:56.192Z,29.40
2019-04-06T05:47:26.657Z,30.20
2019-04-06T05:49:56.956Z,30.30
2019-04-06T05:52:28.402Z,31.27
2019-04-06T05:54:58.800Z,31.80
2019-04-06T05:57:31.817Z,30.53
2019-04-06T06:00:01.036Z,28.20
2019-04-06T06:02:31.448Z,29.60
2019-04-06T06:05:01.727Z,30.43
2019-04-06T06:07:32.019Z,30.53
2019-04-06T06:10:02.576Z,31.60
2019-04-06T06:12:32.932Z,30.83
2019-04-06T06:15:03.284Z,31.90
2019-04-06T06:17:33.574Z,32.53
2019-04-06T06:20:03.972Z,33.87
2019-04-06T06:22:34.718Z,32.80
2019-04-06T06:25:06.509Z,33.10
2019-04-06T06:27:36.877Z,32.80
2019-04-06T06:30:09.045Z,33.43
2019-04-06T06:32:39.402Z,32.37
2019-04-06T06:35:09.943Z,31.80
2019-04-06T06:37:40.247Z,34.40
2019-04-06T06:40:10.665Z,34.43
2019-04-06T06:42:41.100Z,31.97
2019-04-06T06:45:15.573Z,32.87
2019-04-06T06:47:48.990Z,33.87
2019-04-06T06:50:19.438Z,33.03
2019-04-06T06:52:52.797Z,32.33
2019-04-06T06:55:23.106Z,33.67
2019-04-06T06:57:55.883Z,32.03
2019-04-06T07:00:25.497Z,32.30
2019-04-06T07:02:57.567Z,32.23
2019-04-06T07:05:28.175Z,34.83
2019-04-06T07:08:00.404Z,34.60
2019-04-06T07:10:37.024Z,34.27
2019-04-06T07:13:07.452Z,32.30
2019-04-06T07:15:37.832Z,32.90
2019-04-06T07:18:08.355Z,32.53
2019-04-06T07:20:45.010Z,31.17
2019-04-06T07:23:16.714Z,32.27
2019-04-06T07:25:56.873Z,33.70
2019-04-06T07:28:21.238Z,33.33
2019-04-06T07:30:51.593Z,33.60
2019-04-06T07:33:21.911Z,31.67
2019-04-06T07:35:52.331Z,34.60
2019-04-06T07:38:22.844Z,32.10
2019-04-06T07:40:55.066Z,34.67
2019-04-06T07:43:30.651Z,36.63
2019-04-06T07:46:01.375Z,36.97
2019-04-06T07:48:31.845Z,34.17
2019-04-06T07:51:02.719Z,35.83
2019-04-06T07:53:39.504Z,35.43
2019-04-06T07:56:21.040Z,35.00
2019-04-06T07:58:51.671Z,34.77
2019-04-06T08:01:22.290Z,35.83
2019-04-06T08:03:52.772Z,35.80
2019-04-06T08:06:26.151Z,33.37
2019-04-06T08:08:57.333Z,34.60
2019-04-06T08:11:27.908Z,35.43
2019-04-06T08:13:58.293Z,41.23
2019-04-06T08:16:28.766Z,35.77
2019-04-06T08:18:59.308Z,35.33
2019-04-06T08:21:29.779Z,35.13
2019-04-06T08:24:00.160Z,36.47
2019-04-06T08:26:31.842Z,37.13
2019-04-06T08:29:05.854Z,36.93
2019-04-06T08:31:36.270Z,36.70
2019-04-06T08:34:06.817Z,36.60
2019-04-06T08:36:37.369Z,35.57
2019-04-06T08:39:09.629Z,36.97
2019-04-06T08:41:40.130Z,37.00
2019-04-06T08:44:11.723Z,39.00
2019-04-06T08:46:42.139Z,38.27
2019-04-06T08:49:12.501Z,37.50
2019-04-06T08:51:43.010Z,39.23
2019-04-06T08:54:14.762Z,39.53
2019-04-06T08:56:46.749Z,39.63
2019-04-06T08:59:17.472Z,39.80
2019-04-06T09:01:47.874Z,38.07
2019-04-06T09:04:18.388Z,41.57
2019-04-06T09:06:49.705Z,42.67
2019-04-06T09:09:20.106Z,41.43
2019-04-06T09:11:50.642Z,42.40
2019-04-06T09:14:21.123Z,42.47
2019-04-06T09:16:51.558Z,41.00
2019-04-06T09:19:21.946Z,42.80
2019-04-06T09:21:52.376Z,41.43
2019-04-06T09:24:22.804Z,43.97
2019-04-06T09:26:53.203Z,43.70
2019-04-06T09:29:24.613Z,44.30
2019-04-06T09:31:55.442Z,43.87
2019-04-06T09:34:25.737Z,44.87
2019-04-06T09:36:56.230Z,46.83
2019-04-06T09:39:26.604Z,47.37
2019-04-06T09:41:56.940Z,46.73
2019-04-06T09:44:49.187Z,46.50
2019-04-06T09:47:28.269Z,45.70
2019-04-06T09:50:16.022Z,46.53
2019-04-06T09:53:06.233Z,48.43
2019-04-06T09:55:49.998Z,48.13
2019-04-06T09:58:48.611Z,47.53
2019-04-06T10:01:47.222Z,45.47
2019-04-06T10:04:45.556Z,46.83
2019-04-06T10:07:28.361Z,49.23
2019-04-06T10:10:11.255Z,49.50
2019-04-06T10:13:00.894Z,47.00
2019-04-06T10:15:53.097Z,47.80
2019-04-06T10:18:35.201Z,48.97
2019-04-06T10:21:33.365Z,50.83
2019-04-06T10:24:28.512Z,50.80
2019-04-06T10:27:24.114Z,50.87
2019-04-06T10:30:12.021Z,51.03
2019-04-06T10:33:01.382Z,52.77
2019-04-06T10:36:03.184Z,52.03
2019-04-06T10:38:55.559Z,51.70
2019-04-06T10:41:55.169Z,51.57
2019-04-06T10:44:42.944Z,51.23
2019-04-06T10:47:32.387Z,54.40
2019-04-06T10:50:21.746Z,50.87
2019-04-06T10:53:08.711Z,50.20
2019-04-06T10:55:57.166Z,52.27
2019-04-06T10:58:44.677Z,72.27
2019-04-06T11:01:32.820Z,56.23
2019-04-06T11:04:25.622Z,54.40
2019-04-06T11:07:30.698Z,56.17
2019-04-06T11:10:19.173Z,56.17
2019-04-06T11:12:59.276Z,57.17
2019-04-06T11:15:47.703Z,54.97
2019-04-06T11:18:53.967Z,55.90
2019-04-06T11:21:33.674Z,55.37
2019-04-06T11:24:27.978Z,55.90
2019-04-06T11:27:26.468Z,55.37
2019-04-06T11:30:19.041Z,57.60
2019-04-06T11:33:19.432Z,56.83
2019-04-06T11:36:03.788Z,56.30
2019-04-06T11:38:51.999Z,57.57
2019-04-06T11:41:40.455Z,57.57
2019-04-06T11:44:22.483Z,57.27
2019-04-06T11:47:00.089Z,58.97
2019-04-06T11:50:07.561Z,56.27
2019-04-06T11:52:49.018Z,57.20
2019-04-06T11:55:32.424Z,59.37
2019-04-06T11:58:14.944Z,58.47
2019-04-06T12:01:10.154Z,57.77
2019-04-06T12:03:48.958Z,55.93
2019-04-06T12:06:40.284Z,56.90
2019-04-06T12:09:29.659Z,58.93
2019-04-06T12:12:12.775Z,58.77
2019-04-06T12:15:02.181Z,57.93
2019-04-06T12:17:51.804Z,55.37
2019-04-06T12:20:40.577Z,56.53
2019-04-06T12:23:33.419Z,59.90
2019-04-06T12:26:38.771Z,57.23
2019-04-06T12:29:29.115Z,58.13
2019-04-06T12:32:25.603Z,54.70
2019-04-06T12:35:06.636Z,57.87
2019-04-06T12:37:59.264Z,56.37
2019-04-06T12:40:43.526Z,53.43
2019-04-06T12:43:38.934Z,56.87
2019-04-06T12:46:22.011Z,57.77
2019-04-06T12:49:17.665Z,58.57
2019-04-06T12:52:06.111Z,57.77
2019-04-06T12:55:07.728Z,60.53
2019-04-06T12:57:52.130Z,58.40
2019-04-06T13:00:56.887Z,57.87
2019-04-06T13:03:46.570Z,57.53
2019-04-06T13:06:48.787Z,58.63
2019-04-06T13:09:32.913Z,55.43
2019-04-06T13:12:25.616Z,59.40
2019-04-06T13:15:12.412Z,56.87
2019-04-06T13:18:04.810Z,58.87
2019-04-06T13:20:56.297Z,56.70
2019-04-06T13:23:43.413Z,58.17
2019-04-06T13:26:32.793Z,59.73
2019-04-06T13:29:34.538Z,57.97
2019-04-06T13:32:31.267Z,58.40
2019-04-06T13:35:24.243Z,58.90
2019-04-06T13:38:06.011Z,59.33
2019-04-06T13:40:57.565Z,58.30
2019-04-06T13:43:35.988Z,59.23
2019-04-06T13:46:18.612Z,56.40
2019-04-06T13:49:12.835Z,59.57
2019-04-06T13:52:11.120Z,58.37
2019-04-06T13:55:02.339Z,58.43
2019-04-06T13:57:43.888Z,56.93
2019-04-06T14:00:39.686Z,56.00
2019-04-06T14:03:27.983Z,54.30
2019-04-06T14:06:22.031Z,52.60
2019-04-06T14:08:59.078Z,53.53
2019-04-06T14:11:47.370Z,56.07
2019-04-06T14:14:41.208Z,55.17
2019-04-06T14:17:31.747Z,55.40
2019-04-06T14:20:21.399Z,57.63
2019-04-06T14:23:01.693Z,56.50
2019-04-06T14:25:53.259Z,54.87
2019-04-06T14:28:45.602Z,54.77
2019-04-06T14:31:30.811Z,54.07
2019-04-06T14:34:35.733Z,56.80
2019-04-06T14:37:18.576Z,54.23
2019-04-06T14:40:38.185Z,53.13
2019-04-06T14:43:29.333Z,54.57
2019-04-06T14:46:10.448Z,55.60
2019-04-06T14:48:55.518Z,54.47
2019-04-06T14:51:33.782Z,54.97
2019-04-06T14:54:32.430Z,56.20
2019-04-06T14:57:11.829Z,53.37
2019-04-06T15:00:13.431Z,51.30
2019-04-06T15:02:57.838Z,50.60
2019-04-06T15:05:41.870Z,49.90
2019-04-06T15:08:22.727Z,52.03
2019-04-06T15:11:00.478Z,52.73
2019-04-06T15:13:49.876Z,52.53
2019-04-06T15:16:37.870Z,53.03
2019-04-06T15:19:18.229Z,54.13
2019-04-06T15:22:06.636Z,53.70
2019-04-06T15:24:51.104Z,52.80
2019-04-06T15:27:32.787Z,53.37
2019-04-06T15:30:21.633Z,52.57
2019-04-06T15:32:59.167Z,53.80
2019-04-06T15:35:57.503Z,54.43
2019-04-06T15:38:50.008Z,53.53
2019-04-06T15:41:39.302Z,55.90
2019-04-06T15:44:37.922Z,55.23
2019-04-06T15:47:39.092Z,53.97
2019-04-06T15:50:41.687Z,54.30
2019-04-06T15:53:19.829Z,52.63
2019-04-06T15:56:12.457Z,54.30
2019-04-06T15:58:56.856Z,53.20
2019-04-06T16:01:38.730Z,53.87
2019-04-06T16:04:48.176Z,56.90
2019-04-06T16:07:36.199Z,53.17
2019-04-06T16:10:38.092Z,55.17
2019-04-06T16:13:26.887Z,54.43
2019-04-06T16:16:25.469Z,55.57
2019-04-06T16:19:17.556Z,52.73
2019-04-06T16:22:19.304Z,52.57
2019-04-06T16:25:12.322Z,50.27
2019-04-06T16:28:02.609Z,53.57
2019-04-06T16:31:04.157Z,53.47
2019-04-06T16:33:50.570Z,49.57
2019-04-06T16:36:45.634Z,52.23
2019-04-06T16:39:27.859Z,52.97
2019-04-06T16:42:17.080Z,50.53
2019-04-06T16:45:05.059Z,52.67
2019-04-06T16:48:09.336Z,52.10
2019-04-06T16:50:57.192Z,53.50
2019-04-06T16:53:45.338Z,50.17
2019-04-06T16:56:36.490Z,51.63
2019-04-06T16:59:14.700Z,51.87
2019-04-06T17:01:53.389Z,53.53
2019-04-06T17:04:40.622Z,51.63
2019-04-06T17:07:29.470Z,51.33
2019-04-06T17:10:23.799Z,52.37
2019-04-06T17:13:24.771Z,53.10
2019-04-06T17:16:17.137Z,52.17
2019-04-06T17:19:06.500Z,52.13
2019-04-06T17:21:52.098Z,54.77
2019-04-06T17:24:35.073Z,54.00
2019-04-06T17:27:36.223Z,51.77
2019-04-06T17:30:18.701Z,52.47
2019-04-06T17:33:08.299Z,51.20
2019-04-06T17:36:00.667Z,51.20
2019-04-06T17:38:53.307Z,53.70
2019-04-06T17:41:48.724Z,53.00
2019-04-06T17:44:35.974Z,55.40
2019-04-06T17:47:24.459Z,53.97
2019-04-06T17:50:12.294Z,53.50
2019-04-06T17:53:18.579Z,54.60
2019-04-06T17:56:06.919Z,53.70
2019-04-06T17:58:47.431Z,52.87
2019-04-06T18:01:35.584Z,54.60
2019-04-06T18:04:25.126Z,55.23
2019-04-06T18:07:09.290Z,55.27
2019-04-06T18:09:56.642Z,54.67
2019-04-06T18:12:46.100Z,53.80
2019-04-06T18:15:17.791Z,55.57
2019-04-06T18:17:48.320Z,53.83
2019-04-06T18:20:18.810Z,53.50
2019-04-06T18:22:50.184Z,55.73
2019-04-06T18:25:22.017Z,58.23
2019-04-06T18:27:52.629Z,57.43
2019-04-06T18:30:24.301Z,54.23
2019-04-06T18:33:02.240Z,55.90
2019-04-06T18:35:37.285Z,57.90
2019-04-06T18:38:36.552Z,58.70
2019-04-06T18:41:10.174Z,58.17
2019-04-06T18:43:42.256Z,57.60
2019-04-06T18:46:15.939Z,59.67
2019-04-06T18:48:50.001Z,58.23
2019-04-06T18:51:20.721Z,57.63
2019-04-06T18:53:55.965Z,55.83
2019-04-06T18:56:29.266Z,56.23
2019-04-06T18:59:04.474Z,58.73
2019-04-06T19:01:43.064Z,57.43
2019-04-06T19:04:15.965Z,57.67
2019-04-06T19:06:46.768Z,59.30
2019-04-06T19:09:23.734Z,59.83
2019-04-06T19:11:58.835Z,59.33
2019-04-06T19:14:30.965Z,58.57
2019-04-06T19:17:08.471Z,56.47
2019-04-06T19:19:39.657Z,57.83
2019-04-06T19:22:13.760Z,58.23
2019-04-06T19:24:45.122Z,57.63
2019-04-06T19:27:24.991Z,60.03
2019-04-06T19:29:58.872Z,56.53
2019-04-06T19:32:29.541Z,58.80
2019-04-06T19:35:04.115Z,59.03
2019-04-06T19:37:39.610Z,55.03
2019-04-06T19:40:19.566Z,58.10
2019-04-06T19:42:58.951Z,56.50
2019-04-06T19:45:36.442Z,58.50
2019-04-06T19:48:21.574Z,58.37
2019-04-06T19:50:55.412Z,58.37
2019-04-06T19:53:38.031Z,59.47
2019-04-06T19:56:23.225Z,57.90
2019-04-06T19:59:04.405Z,60.37
2019-04-06T20:01:43.029Z,59.47
2019-04-06T20:04:22.099Z,59.83
2019-04-06T20:06:58.825Z,60.53
2019-04-06T20:09:35.515Z,64.03
2019-04-06T20:12:11.444Z,63.20
2019-04-06T20:14:45.564Z,65.57
2019-04-06T20:17:16.583Z,69.10
2019-04-06T20:19:49.718Z,71.40
2019-04-06T20:22:26.335Z,70.03
2019-04-06T20:25:00.319Z,74.57
2019-04-06T20:27:37.943Z,76.17
2019-04-06T20:30:10.015Z,77.70
2019-04-06T20:32:46.833Z,78.10
2019-04-06T20:35:21.238Z,80.37
2019-04-06T20:37:58.079Z,81.57
2019-04-06T20:40:33.896Z,83.37
2019-04-06T20:43:08.429Z,80.63
2019-04-06T20:45:43.787Z,80.77
2019-04-06T20:48:24.775Z,81.40
2019-04-06T20:50:56.263Z,85.60
2019-04-06T20:53:31.792Z,83.00
2019-04-06T20:56:05.530Z,89.27
2019-04-06T20:58:37.547Z,87.30
2019-04-06T21:01:08.393Z,89.03
2019-04-06T21:03:41.494Z,86.13
2019-04-06T21:06:16.946Z,84.57
2019-04-06T21:08:51.668Z,84.90
2019-04-06T21:11:28.050Z,88.33
2019-04-06T21:13:59.658Z,91.70
2019-04-06T21:16:34.512Z,88.03
2019-04-06T21:19:12.478Z,89.20
2019-04-06T21:21:50.668Z,91.07
2019-04-06T21:24:24.483Z,87.27
2019-04-06T21:27:03.286Z,89.17
2019-04-06T21:29:41.652Z,92.30
2019-04-06T21:32:23.704Z,88.00
2019-04-06T21:35:16.440Z,89.80
2019-04-06T21:37:51.595Z,86.40
2019-04-06T21:40:51.791Z,88.87
2019-04-06T21:43:21.176Z,91.77
2019-04-06T21:45:59.391Z,92.07
2019-04-06T21:48:31.363Z,89.43
2019-04-06T21:51:03.409Z,88.57
2019-04-06T21:53:40.234Z,90.87
2019-04-06T21:56:15.677Z,88.40
2019-04-06T21:58:50.726Z,89.77
2019-04-06T22:01:25.381Z,91.00
2019-04-06T22:04:01.663Z,92.20
2019-04-06T22:06:35.800Z,88.43
2019-04-06T22:09:11.140Z,91.23
2019-04-06T22:11:46.162Z,86.37
2019-04-06T22:14:24.904Z,92.47
2019-04-06T22:16:58.372Z,90.83
2019-04-06T22:19:33.506Z,93.30
2019-04-06T22:22:08.969Z,95.03
2019-04-06T22:24:39.771Z,89.00
2019-04-06T22:27:13.172Z,87.27
2019-04-06T22:29:49.017Z,97.03
2019-04-06T22:32:34.618Z,85.90
2019-04-06T22:35:05.711Z,90.03
2019-04-06T22:37:39.615Z,89.90
2019-04-06T22:40:14.250Z,89.03
2019-04-06T22:42:48.388Z,89.90
2019-04-06T22:45:22.023Z,89.77
2019-04-06T22:47:56.838Z,93.40
2019-04-06T22:50:30.029Z,92.93
2019-04-06T22:53:12.405Z,92.40
2019-04-06T22:55:46.722Z,90.27
2019-04-06T22:58:17.434Z,89.90
2019-04-06T23:00:56.817Z,91.17
2019-04-06T23:03:59.825Z,87.40
2019-04-06T23:06:42.407Z,93.20
2019-04-06T23:09:18.470Z,91.37
2019-04-06T23:11:52.972Z,91.93
2019-04-06T23:14:42.086Z,91.20
2019-04-06T23:17:14.738Z,88.17
2019-04-06T23:19:59.262Z,91.43
2019-04-06T23:22:30.401Z,86.77
2019-04-06T23:25:05.632Z,90.60
2019-04-06T23:27:39.842Z,89.03
2019-04-06T23:30:12.223Z,88.17
2019-04-06T23:32:47.892Z,89.43
2019-04-06T23:35:18.882Z,88.43
2019-04-06T23:37:54.967Z,93.23
2019-04-06T23:40:33.773Z,95.13
2019-04-06T23:43:09.633Z,94.73
2019-04-06T23:45:45.831Z,96.87
2019-04-06T23:48:20.798Z,95.00
2019-04-06T23:50:53.627Z,92.87
2019-04-06T23:53:27.142Z,93.60
2019-04-06T23:56:02.792Z,91.07
2019-04-06T23:58:38.073Z,94.03
